Time;durP1;ratioP1;P1;durP2;ratioP2;P2;SDS_P1;SDS_P2;PMS_P1;PMS_P2;Temp;Humidity;BMP_temperature;BMP_pressure;BME280_temperature;BME280_humidity;BME280_pressure;Samples;Min_cycle;Max_cycle;Signal;HPM_P1;HPM_P2
2023/10/21 00:02:15;;;;;;;20.58;5.45;;;20.50;95.10;;;;;;5096400;28;20043;-70
2023/10/21 00:04:40;;;;;;;22.17;5.85;;;20.50;96.80;;;;;;5096176;28;20361;-69
2023/10/21 00:07:06;;;;;;;23.70;5.50;;;20.40;96.60;;;;;;5096373;28;20111;-69
2023/10/21 00:09:32;;;;;;;25.02;5.47;;;20.30;96.70;;;;;;5096430;28;20028;-70
2023/10/21 00:11:57;;;;;;;23.40;5.45;;;20.30;97.00;;;;;;5096208;28;20024;-70
2023/10/21 00:14:23;;;;;;;25.58;6.10;;;20.30;97.40;;;;;;5096681;28;20028;-70
2023/10/21 00:16:49;;;;;;;26.15;6.47;;;20.20;97.90;;;;;;5096272;28;20031;-69
2023/10/21 00:19:15;;;;;;;22.23;5.97;;;20.20;98.50;;;;;;5096211;28;20035;-69
2023/10/21 00:21:41;;;;;;;30.25;5.63;;;20.10;98.70;;;;;;5096616;28;20028;-69
2023/10/21 00:24:07;;;;;;;18.23;5.35;;;20.10;98.90;;;;;;5095906;28;20479;-69
2023/10/21 00:26:47;;;;;;;27.50;6.00;;;20.00;99.30;;;;;;5096724;28;20034;-69
2023/10/21 00:29:14;;;;;;;32.42;6.70;;;20.00;99.70;;;;;;5096406;28;20380;-69
2023/10/21 00:31:41;;;;;;;23.50;5.43;;;20.00;99.90;;;;;;5096529;28;20036;-69
2023/10/21 00:34:07;;;;;;;30.15;6.85;;;19.90;99.90;;;;;;5096064;28;20111;-70
2023/10/21 00:36:32;;;;;;;28.38;6.50;;;19.90;99.90;;;;;;5096318;28;20052;-70
2023/10/21 00:38:58;;;;;;;25.55;6.72;;;19.90;99.90;;;;;;5096228;28;20031;-70
2023/10/21 00:41:24;;;;;;;20.98;5.13;;;19.80;99.90;;;;;;5096058;28;20093;-69
2023/10/21 00:43:50;;;;;;;29.73;5.90;;;19.80;99.90;;;;;;5096037;28;20476;-69
2023/10/21 00:46:17;;;;;;;26.05;5.72;;;19.70;99.90;;;;;;5083046;28;20028;-69
2023/10/21 00:48:45;;;;;;;26.45;5.65;;;19.70;99.90;;;;;;5074841;28;20032;-69
2023/10/21 00:51:10;;;;;;;26.50;6.22;;;19.70;99.90;;;;;;5075406;28;20020;-69
2023/10/21 00:53:37;;;;;;;22.40;5.90;;;19.70;99.90;;;;;;5075998;28;20025;-70
2023/10/21 00:56:03;;;;;;;27.17;6.18;;;19.70;99.90;;;;;;5057147;28;20407;-68
2023/10/21 00:58:32;;;;;;;19.33;6.13;;;19.70;99.90;;;;;;5075368;28;20206;-69
2023/10/21 01:01:03;;;;;;;28.02;5.40;;;19.60;99.90;;;;;;5075370;28;20035;-70
2023/10/21 01:03:30;;;;;;;22.85;5.90;;;19.60;99.90;;;;;;5075769;28;20047;-68
2023/10/21 01:05:56;;;;;;;24.00;6.07;;;19.60;99.90;;;;;;5075814;28;20039;-68
2023/10/21 01:08:22;;;;;;;29.33;6.22;;;19.50;99.90;;;;;;5074316;28;20535;-69
2023/10/21 01:10:47;;;;;;;28.50;6.30;;;19.50;99.90;;;;;;5088892;28;20024;-69
2023/10/21 01:13:13;;;;;;;30.48;6.20;;;19.40;99.90;;;;;;5095148;28;20069;-70
2023/10/21 01:15:39;;;;;;;27.17;6.10;;;19.30;99.90;;;;;;5095653;28;20063;-68
2023/10/21 01:18:08;;;;;;;22.50;6.13;;;19.30;99.90;;;;;;5094788;28;20032;-68
2023/10/21 01:20:35;;;;;;;28.80;6.70;;;19.30;99.90;;;;;;5095438;28;20034;-69
2023/10/21 01:23:01;;;;;;;29.70;6.47;;;19.20;99.90;;;;;;5094977;28;20057;-70
2023/10/21 01:25:27;;;;;;;22.27;6.32;;;19.20;99.90;;;;;;5095364;28;20040;-69
2023/10/21 01:27:54;;;;;;;31.05;6.70;;;19.10;99.90;;;;;;5095260;28;20020;-69
2023/10/21 01:30:23;;;;;;;27.15;6.82;;;19.10;99.90;;;;;;5094893;28;20028;-70
2023/10/21 01:32:49;;;;;;;29.70;6.80;;;19.10;99.90;;;;;;5095140;28;20053;-69
2023/10/21 01:35:18;;;;;;;29.42;6.60;;;19.00;99.90;;;;;;5094808;28;20031;-70
2023/10/21 01:37:45;;;;;;;22.15;5.88;;;19.00;99.90;;;;;;5094868;28;20055;-70
2023/10/21 01:40:11;;;;;;;15.18;4.20;;;19.00;99.90;;;;;;5094386;28;20465;-68
2023/10/21 01:42:38;;;;;;;14.68;4.90;;;18.90;99.90;;;;;;5094941;28;20024;-70
2023/10/21 01:45:04;;;;;;;13.02;4.57;;;18.80;99.90;;;;;;5094842;28;20040;-70
2023/10/21 01:47:30;;;;;;;12.40;4.70;;;18.80;99.90;;;;;;5094557;28;20107;-69
2023/10/21 01:49:57;;;;;;;12.10;4.13;;;18.70;99.90;;;;;;5091584;28;20110;-69
2023/10/21 01:52:26;;;;;;;6.55;3.45;;;18.80;99.60;;;;;;5094693;28;20105;-69
2023/10/21 01:54:54;;;;;;;7.28;4.07;;;18.70;98.60;;;;;;5094480;28;20031;-68
2023/10/21 01:57:20;;;;;;;9.38;4.15;;;18.70;98.50;;;;;;5094366;28;20153;-68
2023/10/21 01:59:46;;;;;;;8.27;3.88;;;18.60;98.50;;;;;;5094683;28;20134;-69
2023/10/21 02:02:12;;;;;;;12.82;4.88;;;18.60;98.40;;;;;;5094228;28;20115;-70
2023/10/21 02:04:37;;;;;;;12.98;4.55;;;18.60;98.30;;;;;;5094552;28;20042;-70
2023/10/21 02:07:03;;;;;;;9.98;3.70;;;18.50;98.30;;;;;;5094455;28;20063;-70
2023/10/21 02:09:29;;;;;;;8.68;3.60;;;18.40;98.30;;;;;;5094462;28;20024;-69
2023/10/21 02:11:55;;;;;;;6.15;3.60;;;18.50;98.40;;;;;;5094469;28;20101;-68
2023/10/21 02:14:22;;;;;;;6.45;3.58;;;18.50;98.20;;;;;;5094280;28;20073;-68
2023/10/21 02:16:52;;;;;;;6.22;3.83;;;18.40;97.90;;;;;;5094239;28;20024;-69
2023/10/21 02:19:18;;;;;;;5.50;4.00;;;18.40;97.90;;;;;;5094272;28;20077;-68
2023/10/21 02:21:44;;;;;;;7.63;4.70;;;18.40;98.00;;;;;;5092933;28;20127;-69
2023/10/21 02:24:10;;;;;;;7.78;4.07;;;18.40;98.10;;;;;;5092817;28;20038;-69
2023/10/21 02:26:36;;;;;;;5.25;3.90;;;18.40;97.90;;;;;;5094185;28;20460;-68
2023/10/21 02:29:01;;;;;;;5.97;4.10;;;18.30;97.70;;;;;;5094300;28;20081;-68
2023/10/21 02:31:27;;;;;;;5.05;3.78;;;18.30;97.80;;;;;;5093929;28;20031;-68
2023/10/21 02:33:53;;;;;;;9.25;4.50;;;18.30;97.90;;;;;;5094011;28;20544;-69
2023/10/21 02:36:19;;;;;;;6.70;3.90;;;18.30;97.80;;;;;;5093501;28;20020;-69
2023/10/21 02:38:45;;;;;;;5.28;4.18;;;18.30;97.80;;;;;;5093705;28;20349;-69
2023/10/21 02:41:11;;;;;;;5.68;3.40;;;18.30;97.80;;;;;;5093446;28;20517;-70
2023/10/21 02:43:37;;;;;;;6.00;4.57;;;18.20;97.60;;;;;;5093623;28;20114;-69
2023/10/21 02:46:13;;;;;;;6.65;3.90;;;18.20;97.40;;;;;;5093710;28;20035;-69
2023/10/21 02:48:39;;;;;;;5.95;4.35;;;18.20;97.40;;;;;;5092456;28;20501;-70
2023/10/21 02:51:15;;;;;;;5.85;4.00;;;18.10;97.30;;;;;;5093224;28;20024;-71
2023/10/21 02:53:41;;;;;;;5.82;4.07;;;18.10;97.30;;;;;;5093620;28;20531;-68
2023/10/21 02:56:07;;;;;;;5.22;3.88;;;18.10;97.40;;;;;;5078716;28;20024;-68
2023/10/21 02:58:37;;;;;;;5.20;3.97;;;18.00;97.70;;;;;;5071651;28;20052;-69
2023/10/21 03:01:12;;;;;;;7.60;4.13;;;18.00;97.50;;;;;;5072950;28;20077;-69
2023/10/21 03:03:38;;;;;;;5.78;4.20;;;18.00;97.40;;;;;;5073232;28;20102;-68
2023/10/21 03:06:03;;;;;;;7.28;4.03;;;17.90;97.30;;;;;;5073086;28;20043;-69
2023/10/21 03:08:30;;;;;;;6.03;4.30;;;17.90;97.20;;;;;;5072717;28;20101;-69
2023/10/21 03:10:56;;;;;;;6.88;4.13;;;17.90;97.30;;;;;;5072822;28;20024;-68
2023/10/21 03:13:23;;;;;;;5.30;4.20;;;17.90;97.30;;;;;;5072546;28;20063;-69
2023/10/21 03:15:48;;;;;;;5.28;3.72;;;17.80;97.50;;;;;;5073011;28;20063;-70
2023/10/21 03:18:14;;;;;;;4.43;3.90;;;17.80;97.70;;;;;;5077576;28;20044;-70
2023/10/21 03:20:40;;;;;;;5.13;3.88;;;17.80;97.90;;;;;;5092974;28;20059;-69
2023/10/21 03:23:05;;;;;;;6.97;3.95;;;17.80;97.90;;;;;;5093150;28;20034;-69
2023/10/21 03:25:33;;;;;;;6.03;4.03;;;17.70;97.90;;;;;;5093021;28;20056;-69
2023/10/21 03:27:59;;;;;;;5.50;4.05;;;17.70;97.90;;;;;;5093073;28;20032;-69
2023/10/21 03:30:24;;;;;;;5.18;3.97;;;17.70;97.80;;;;;;5092711;28;20053;-69
2023/10/21 03:32:50;;;;;;;7.82;4.13;;;17.70;97.80;;;;;;5091701;28;20039;-69
2023/10/21 03:35:15;;;;;;;5.93;4.13;;;17.60;97.80;;;;;;5092896;28;20049;-70
2023/10/21 03:37:41;;;;;;;5.22;3.67;;;17.70;97.90;;;;;;5092662;28;20039;-70
2023/10/21 03:40:10;;;;;;;8.07;3.95;;;17.60;97.90;;;;;;5093185;28;20059;-69
2023/10/21 03:42:38;;;;;;;6.45;3.90;;;17.70;97.80;;;;;;5089395;28;20047;-69
2023/10/21 03:45:07;;;;;;;5.05;3.80;;;17.70;97.60;;;;;;5092751;28;20468;-69
2023/10/21 03:47:33;;;;;;;6.57;3.85;;;17.60;97.60;;;;;;5092320;28;20039;-69
2023/10/21 03:49:59;;;;;;;6.10;4.13;;;17.60;97.90;;;;;;5091612;28;20030;-68
2023/10/21 03:52:25;;;;;;;5.82;3.90;;;17.60;97.80;;;;;;5092146;28;20056;-68
2023/10/21 03:54:50;;;;;;;9.68;4.80;;;17.60;97.90;;;;;;5092465;28;20101;-69
2023/10/21 03:57:16;;;;;;;4.72;3.90;;;17.60;98.00;;;;;;5092390;28;20109;-70
2023/10/21 03:59:42;;;;;;;5.68;3.80;;;17.60;98.00;;;;;;5092663;28;20126;-70
2023/10/21 04:02:07;;;;;;;5.97;4.65;;;17.60;98.00;;;;;;5092676;28;20044;-69
2023/10/21 04:04:33;;;;;;;7.40;4.03;;;17.60;98.00;;;;;;5092317;28;20472;-70
2023/10/21 04:06:59;;;;;;;7.53;4.53;;;17.60;98.20;;;;;;5092744;28;20024;-69
2023/10/21 04:09:26;;;;;;;7.28;4.13;;;17.60;98.20;;;;;;5092224;28;20074;-70
2023/10/21 04:11:53;;;;;;;5.90;3.65;;;17.60;98.30;;;;;;5092514;28;20035;-69
2023/10/21 04:14:18;;;;;;;7.40;4.28;;;17.60;98.30;;;;;;5092501;28;20089;-70
2023/10/21 04:16:44;;;;;;;4.35;3.95;;;17.60;98.20;;;;;;5092582;28;20028;-69
2023/10/21 04:19:10;;;;;;;6.28;4.50;;;17.60;98.40;;;;;;5092244;28;20369;-69
2023/10/21 04:21:36;;;;;;;4.85;4.00;;;17.60;98.40;;;;;;5092384;28;20039;-69
2023/10/21 04:24:03;;;;;;;6.15;4.57;;;17.60;98.40;;;;;;5092509;28;20021;-69
2023/10/21 04:26:29;;;;;;;5.72;4.28;;;17.60;98.40;;;;;;5091996;28;20032;-68
2023/10/21 04:28:55;;;;;;;5.85;4.05;;;17.60;98.60;;;;;;5092472;28;20036;-69
2023/10/21 04:31:20;;;;;;;6.88;4.45;;;17.60;98.40;;;;;;5091715;28;20032;-69
2023/10/21 04:33:46;;;;;;;6.72;4.40;;;17.60;98.50;;;;;;5092376;28;20024;-70
2023/10/21 04:36:16;;;;;;;7.05;4.03;;;17.50;98.40;;;;;;5092124;28;20112;-69
2023/10/21 04:38:43;;;;;;;7.07;4.83;;;17.50;98.60;;;;;;5092498;28;20039;-68
2023/10/21 04:41:09;;;;;;;5.45;4.53;;;17.50;98.90;;;;;;5091961;28;20051;-69
2023/10/21 04:43:36;;;;;;;5.63;4.28;;;17.50;98.80;;;;;;5092602;28;20024;-68
2023/10/21 04:46:01;;;;;;;7.57;4.85;;;17.50;98.90;;;;;;5096047;28;20028;-69
2023/10/21 04:48:27;;;;;;;5.32;4.50;;;17.50;99.00;;;;;;5095640;28;20020;-70
2023/10/21 04:50:53;;;;;;;5.80;4.80;;;17.50;99.00;;;;;;5095721;28;20462;-69
2023/10/21 04:53:18;;;;;;;6.93;4.63;;;17.50;99.10;;;;;;5095569;28;20020;-70
2023/10/21 04:55:44;;;;;;;7.65;4.80;;;17.40;99.20;;;;;;5095897;28;20039;-70
2023/10/21 04:58:09;;;;;;;8.23;4.80;;;17.40;99.50;;;;;;5095739;28;20321;-69
2023/10/21 05:00:35;;;;;;;7.35;4.47;;;17.40;99.50;;;;;;5082023;28;20086;-70
2023/10/21 05:03:01;;;;;;;6.55;5.55;;;17.40;99.40;;;;;;5074106;28;20029;-70
2023/10/21 05:05:26;;;;;;;7.00;5.13;;;17.40;99.60;;;;;;5073686;28;20485;-69
2023/10/21 05:07:52;;;;;;;7.55;4.78;;;17.30;99.70;;;;;;5075285;28;20432;-70
2023/10/21 05:10:18;;;;;;;7.10;5.05;;;17.30;99.90;;;;;;5076418;28;20020;-68
2023/10/21 05:12:44;;;;;;;6.07;4.72;;;17.30;99.90;;;;;;5095444;28;20111;-69
2023/10/21 05:15:10;;;;;;;8.60;5.07;;;17.30;99.90;;;;;;5095229;28;20102;-68
2023/10/21 05:17:35;;;;;;;7.22;5.10;;;17.30;99.90;;;;;;5095092;28;20244;-68
2023/10/21 05:20:02;;;;;;;5.80;4.80;;;17.30;99.90;;;;;;5095187;28;20027;-69
2023/10/21 05:22:28;;;;;;;6.38;5.30;;;17.30;99.90;;;;;;5094943;28;20032;-68
2023/10/21 05:24:55;;;;;;;7.10;5.18;;;17.30;99.90;;;;;;5095274;28;20077;-68
2023/10/21 05:27:21;;;;;;;6.18;4.65;;;17.20;99.90;;;;;;5094969;28;20103;-69
2023/10/21 05:29:47;;;;;;;5.95;4.78;;;17.20;99.90;;;;;;5095241;28;20028;-68
2023/10/21 05:32:14;;;;;;;7.10;5.00;;;17.30;99.90;;;;;;5095183;28;20062;-68
2023/10/21 05:34:40;;;;;;;8.68;5.00;;;17.30;99.90;;;;;;5094657;28;20028;-69
2023/10/21 05:37:06;;;;;;;6.72;5.05;;;17.20;99.90;;;;;;5095000;28;20039;-69
2023/10/21 05:39:32;;;;;;;9.50;5.47;;;17.20;99.90;;;;;;5094773;28;20024;-70
2023/10/21 05:41:58;;;;;;;7.65;5.45;;;17.20;99.90;;;;;;5095046;28;20085;-69
2023/10/21 05:44:24;;;;;;;6.97;4.95;;;17.20;99.90;;;;;;5093161;28;20031;-69
2023/10/21 05:46:49;;;;;;;6.80;5.38;;;17.20;99.90;;;;;;5094643;28;20024;-69
2023/10/21 05:49:15;;;;;;;6.90;4.57;;;17.20;99.90;;;;;;5094740;28;20032;-69
2023/10/21 05:51:41;;;;;;;7.45;5.43;;;17.20;99.90;;;;;;5091065;28;20028;-69
2023/10/21 05:54:06;;;;;;;6.85;5.60;;;17.20;99.90;;;;;;5094369;28;20060;-69
2023/10/21 05:56:32;;;;;;;8.85;5.00;;;17.20;99.90;;;;;;5094264;28;20471;-69
2023/10/21 05:58:57;;;;;;;7.32;5.53;;;17.20;99.90;;;;;;5094611;28;20048;-69
2023/10/21 06:01:23;;;;;;;6.88;4.97;;;17.20;99.90;;;;;;5094009;28;20403;-69
2023/10/21 06:03:49;;;;;;;10.20;5.97;;;17.20;99.90;;;;;;5094698;28;20050;-69
2023/10/21 06:06:16;;;;;;;10.13;6.25;;;17.20;99.90;;;;;;5094293;28;20028;-68
2023/10/21 06:08:42;;;;;;;10.18;6.50;;;17.20;99.90;;;;;;5093688;28;20457;-69
2023/10/21 06:11:08;;;;;;;9.30;5.45;;;17.20;99.90;;;;;;5092989;28;20054;-69
2023/10/21 06:13:34;;;;;;;18.60;6.60;;;17.20;99.90;;;;;;5093867;28;20032;-68
2023/10/21 06:15:59;;;;;;;27.35;7.88;;;17.20;99.90;;;;;;5094189;28;20063;-68
2023/10/21 06:18:25;;;;;;;12.00;6.43;;;17.20;99.90;;;;;;5093501;28;20031;-69
2023/10/21 06:20:51;;;;;;;13.13;7.38;;;17.20;99.90;;;;;;5094136;28;20404;-69
2023/10/21 06:23:17;;;;;;;16.98;7.55;;;17.20;99.90;;;;;;5094083;28;20142;-68
2023/10/21 06:25:43;;;;;;;15.20;7.90;;;17.20;99.90;;;;;;5093649;28;20464;-68
2023/10/21 06:28:09;;;;;;;22.40;7.88;;;17.20;99.90;;;;;;5093830;28;20028;-68
2023/10/21 06:30:40;;;;;;;16.83;7.90;;;17.20;99.90;;;;;;5093721;28;20098;-68
2023/10/21 06:33:06;;;;;;;16.65;7.80;;;17.20;99.90;;;;;;5094054;28;20039;-68
2023/10/21 06:35:32;;;;;;;15.82;7.85;;;17.30;99.90;;;;;;5092298;28;20481;-68
2023/10/21 06:37:58;;;;;;;17.50;7.72;;;17.30;99.90;;;;;;5093638;28;20035;-69
2023/10/21 06:40:23;;;;;;;15.43;8.15;;;17.30;99.90;;;;;;5092496;28;20032;-70
2023/10/21 06:42:49;;;;;;;14.52;8.10;;;17.30;99.90;;;;;;5093686;28;20036;-69
2023/10/21 06:45:15;;;;;;;16.65;7.38;;;17.30;99.90;;;;;;5093684;28;20028;-69
2023/10/21 06:47:40;;;;;;;14.73;7.32;;;17.30;99.90;;;;;;5092996;28;20384;-69
2023/10/21 06:50:06;;;;;;;10.07;6.90;;;17.40;99.90;;;;;;5093636;28;20024;-69
2023/10/21 06:52:32;;;;;;;12.82;7.00;;;17.40;99.90;;;;;;5093206;28;20429;-68
2023/10/21 06:54:58;;;;;;;13.60;7.38;;;17.40;99.90;;;;;;5093596;28;20066;-69
2023/10/21 06:57:23;;;;;;;11.35;6.65;;;17.50;99.90;;;;;;5093175;28;20027;-69
2023/10/21 06:59:52;;;;;;;12.00;6.50;;;17.50;99.90;;;;;;5089387;28;20048;-69
2023/10/21 07:02:18;;;;;;;11.90;6.78;;;17.50;99.90;;;;;;5093374;28;20457;-70
2023/10/21 07:04:43;;;;;;;10.75;6.57;;;17.50;99.90;;;;;;5092487;28;20081;-69
2023/10/21 07:07:10;;;;;;;8.18;6.18;;;17.60;99.90;;;;;;5092837;28;20127;-69
2023/10/21 07:09:37;;;;;;;9.95;6.38;;;17.60;99.90;;;;;;5092857;28;20058;-69
2023/10/21 07:12:03;;;;;;;10.50;6.43;;;17.70;99.90;;;;;;5093126;28;20456;-68
2023/10/21 07:14:29;;;;;;;8.18;6.15;;;17.70;99.90;;;;;;5075320;28;20036;-69
2023/10/21 07:16:55;;;;;;;11.43;6.55;;;17.80;99.90;;;;;;5072720;28;20032;-69
2023/10/21 07:19:21;;;;;;;9.80;6.60;;;17.90;99.90;;;;;;5075906;28;20465;-69
2023/10/21 07:21:48;;;;;;;8.85;5.47;;;18.00;99.90;;;;;;5075005;28;20052;-69
2023/10/21 07:24:14;;;;;;;10.45;5.88;;;18.20;99.70;;;;;;5076872;28;20037;-68
2023/10/21 07:26:40;;;;;;;8.43;5.43;;;18.30;99.20;;;;;;5081424;28;20349;-70
2023/10/21 07:29:07;;;;;;;9.10;5.90;;;18.40;99.40;;;;;;5089735;28;20107;-69
2023/10/21 07:31:33;;;;;;;14.93;5.85;;;18.50;98.90;;;;;;5080999;28;20040;-68
2023/10/21 07:33:59;;;;;;;7.50;5.05;;;18.60;98.60;;;;;;5081450;28;20049;-68
2023/10/21 07:36:25;;;;;;;9.70;5.35;;;18.70;98.10;;;;;;5082161;28;20024;-68
2023/10/21 07:38:52;;;;;;;11.07;5.53;;;18.80;97.50;;;;;;5083081;28;20487;-67
2023/10/21 07:41:19;;;;;;;9.13;4.90;;;18.90;96.60;;;;;;5081614;28;20017;-68
2023/10/21 07:43:45;;;;;;;8.93;5.20;;;19.00;96.30;;;;;;5081338;28;20035;-68
2023/10/21 07:46:10;;;;;;;8.27;4.65;;;19.20;96.10;;;;;;5083211;28;20377;-68
2023/10/21 07:48:36;;;;;;;8.27;4.40;;;19.30;95.10;;;;;;5079514;28;20032;-69
2023/10/21 07:51:02;;;;;;;9.27;4.68;;;19.50;94.40;;;;;;5082067;28;20087;-68
2023/10/21 07:53:28;;;;;;;9.15;4.80;;;19.70;94.30;;;;;;5082120;28;20024;-70
2023/10/21 07:55:54;;;;;;;7.45;4.28;;;19.90;93.60;;;;;;5083777;28;20362;-68
2023/10/21 07:58:22;;;;;;;7.93;4.30;;;20.20;92.80;;;;;;5079369;28;20073;-68
2023/10/21 08:00:47;;;;;;;8.05;4.20;;;20.50;92.20;;;;;;5082735;28;20020;-68
2023/10/21 08:03:14;;;;;;;9.77;4.45;;;20.70;90.60;;;;;;5081224;28;20031;-68
2023/10/21 08:05:40;;;;;;;10.68;5.28;;;21.00;90.10;;;;;;5081480;28;20027;-68
2023/10/21 08:08:06;;;;;;;8.85;4.15;;;21.20;88.70;;;;;;5082763;28;20445;-69
2023/10/21 08:10:32;;;;;;;8.65;3.90;;;21.30;87.50;;;;;;5082028;28;20453;-69
2023/10/21 08:12:57;;;;;;;9.02;4.15;;;21.50;86.90;;;;;;5080714;28;20039;-69
2023/10/21 08:15:24;;;;;;;6.28;3.72;;;21.50;84.80;;;;;;5082546;28;20385;-68
2023/10/21 08:17:50;;;;;;;10.93;7.20;;;21.80;85.20;;;;;;5081513;28;20354;-69
2023/10/21 08:20:17;;;;;;;5.78;3.40;;;22.00;82.90;;;;;;5087158;28;20032;-67
2023/10/21 08:22:42;;;;;;;7.88;3.00;;;22.20;82.10;;;;;;5089965;28;20131;-69
2023/10/21 08:25:08;;;;;;;7.38;3.40;;;22.30;80.20;;;;;;5086966;28;20123;-69
2023/10/21 08:27:36;;;;;;;5.68;3.80;;;22.50;80.70;;;;;;5085142;28;20035;-69
2023/10/21 08:30:02;;;;;;;6.20;2.83;;;22.50;78.00;;;;;;5087173;28;20055;-69
2023/10/21 08:32:28;;;;;;;7.78;3.40;;;22.70;76.90;;;;;;5082781;28;20402;-69
2023/10/21 08:34:53;;;;;;;5.20;3.05;;;22.80;76.40;;;;;;5085118;28;20024;-67
2023/10/21 08:37:19;;;;;;;5.65;3.25;;;22.90;76.40;;;;;;5084955;28;20024;-68
2023/10/21 08:39:48;;;;;;;3.95;2.80;;;23.00;73.90;;;;;;5084157;28;20024;-70
2023/10/21 08:42:17;;;;;;;3.55;2.72;;;23.10;72.90;;;;;;5084129;28;20068;-69
2023/10/21 08:44:48;;;;;;;4.50;2.67;;;23.20;72.70;;;;;;5084220;28;20405;-69
2023/10/21 08:47:16;;;;;;;3.65;2.90;;;23.40;72.00;;;;;;5084428;28;20021;-69
2023/10/21 08:49:45;;;;;;;3.70;2.72;;;23.60;71.90;;;;;;5084414;28;20034;-69
2023/10/21 08:52:13;;;;;;;3.63;2.83;;;23.70;69.80;;;;;;5085786;28;20031;-69
2023/10/21 08:54:41;;;;;;;4.30;3.03;;;23.80;68.50;;;;;;5090126;28;20115;-68
2023/10/21 08:57:07;;;;;;;5.57;3.13;;;23.90;68.10;;;;;;5089657;28;20031;-68
2023/10/21 08:59:33;;;;;;;4.53;3.03;;;23.80;67.00;;;;;;5092079;28;20389;-68
2023/10/21 09:01:59;;;;;;;3.65;2.90;;;23.80;67.90;;;;;;5089288;28;20119;-69
2023/10/21 09:04:25;;;;;;;3.35;2.17;;;23.80;67.70;;;;;;5085368;28;20078;-69
2023/10/21 09:06:59;;;;;;;5.35;3.22;;;23.80;67.60;;;;;;5083404;28;20023;-68
2023/10/21 09:09:29;;;;;;;5.25;2.80;;;23.60;67.00;;;;;;5094779;28;20107;-68
2023/10/21 09:12:05;;;;;;;4.10;3.03;;;23.60;67.30;;;;;;5088765;28;20039;-69
2023/10/21 09:14:36;;;;;;;3.60;2.97;;;23.60;67.70;;;;;;5086702;28;20048;-68
2023/10/21 09:17:02;;;;;;;4.05;2.88;;;23.60;68.30;;;;;;5085837;28;20107;-68
2023/10/21 09:19:28;;;;;;;5.60;3.40;;;23.60;68.50;;;;;;5085026;28;20112;-69
2023/10/21 09:21:53;;;;;;;5.85;3.10;;;23.50;69.00;;;;;;5075072;28;20036;-68
2023/10/21 09:24:23;;;;;;;4.90;3.00;;;23.50;69.70;;;;;;5082957;28;20020;-69
2023/10/21 09:26:49;;;;;;;4.00;2.83;;;23.60;69.90;;;;;;5094625;28;20095;-69
2023/10/21 09:29:19;;;;;;;4.20;3.15;;;23.60;69.90;;;;;;5093967;28;20025;-70
2023/10/21 09:31:55;;;;;;;5.10;3.13;;;23.70;70.20;;;;;;5094740;28;20036;-68
2023/10/21 09:34:30;;;;;;;6.55;3.58;;;23.70;69.10;;;;;;5094709;28;20095;-68
2023/10/21 09:36:56;;;;;;;4.90;3.10;;;23.70;69.30;;;;;;5094135;28;20028;-69
2023/10/21 09:39:24;;;;;;;4.30;3.20;;;23.70;69.10;;;;;;5094740;28;20020;-68
2023/10/21 09:41:50;;;;;;;4.50;3.25;;;23.80;69.10;;;;;;5094069;28;20039;-68
2023/10/21 09:44:17;;;;;;;4.38;3.47;;;23.80;68.40;;;;;;5094593;28;20024;-67
2023/10/21 09:46:47;;;;;;;4.55;3.58;;;24.00;68.90;;;;;;5093799;28;20026;-69
2023/10/21 09:49:14;;;;;;;5.97;3.35;;;24.10;68.90;;;;;;5094738;28;20032;-68
2023/10/21 09:51:58;;;;;;;7.00;3.70;;;24.20;68.70;;;;;;5094389;28;20423;-68
2023/10/21 09:54:37;;;;;;;5.20;3.10;;;24.30;67.70;;;;;;5082474;28;20469;-68
2023/10/21 09:57:06;;;;;;;5.72;3.22;;;24.40;66.80;;;;;;5074470;28;20029;-68
2023/10/21 09:59:32;;;;;;;6.53;3.50;;;24.50;66.80;;;;;;5073834;28;20037;-68
2023/10/21 10:01:59;;;;;;;5.80;3.50;;;24.50;66.30;;;;;;5073870;28;20135;-68
2023/10/21 10:04:26;;;;;;;6.15;3.45;;;24.40;65.60;;;;;;5074343;28;20024;-68
2023/10/21 10:06:58;;;;;;;5.30;3.40;;;24.50;65.20;;;;;;5073755;28;20029;-68
2023/10/21 10:09:26;;;;;;;5.90;3.38;;;24.50;64.90;;;;;;5074194;28;20338;-68
2023/10/21 10:11:58;;;;;;;4.55;2.97;;;24.50;65.60;;;;;;5073378;28;20056;-68
2023/10/21 10:14:30;;;;;;;4.10;3.10;;;24.50;65.20;;;;;;5073980;28;20074;-69
2023/10/21 10:16:55;;;;;;;5.07;2.50;;;24.60;65.10;;;;;;5073188;28;20483;-67
2023/10/21 10:19:35;;;;;;;4.18;3.15;;;24.70;65.40;;;;;;5074466;28;20029;-69
2023/10/21 10:22:19;;;;;;;4.97;2.70;;;24.80;64.10;;;;;;5073345;28;20037;-69
2023/10/21 10:24:53;;;;;;;7.45;2.63;;;24.90;64.10;;;;;;5073344;28;20024;-68
2023/10/21 10:27:18;;;;;;;3.90;2.72;;;25.00;64.50;;;;;;5073464;28;20024;-68
2023/10/21 10:29:51;;;;;;;5.50;3.08;;;25.10;63.90;;;;;;5073301;28;20408;-68
2023/10/21 10:32:17;;;;;;;7.15;3.03;;;25.20;63.60;;;;;;5072587;28;20032;-69
2023/10/21 10:34:53;;;;;;;4.43;2.90;;;25.30;63.20;;;;;;5073356;28;20029;-69
2023/10/21 10:37:30;;;;;;;3.13;2.58;;;25.30;61.70;;;;;;5073533;28;20060;-69
2023/10/21 10:39:56;;;;;;;4.35;2.75;;;25.40;61.80;;;;;;5073081;28;20032;-69
2023/10/21 10:42:29;;;;;;;4.40;2.70;;;25.50;61.00;;;;;;5072239;28;20557;-68
2023/10/21 10:44:55;;;;;;;3.53;2.78;;;25.60;61.30;;;;;;5072866;28;20035;-67
2023/10/21 10:47:22;;;;;;;4.47;2.28;;;25.70;61.80;;;;;;5073498;28;20433;-69
2023/10/21 10:49:58;;;;;;;5.70;2.97;;;25.80;61.30;;;;;;5072903;28;20016;-68
2023/10/21 10:52:35;;;;;;;6.03;2.90;;;25.90;60.90;;;;;;5072882;28;20521;-68
2023/10/21 10:55:03;;;;;;;3.78;2.60;;;25.90;59.90;;;;;;5072744;28;20033;-68
2023/10/21 10:57:29;;;;;;;4.32;2.75;;;26.10;60.40;;;;;;5072766;28;20078;-68
2023/10/21 10:59:56;;;;;;;5.93;2.53;;;26.10;59.10;;;;;;5075019;28;20064;-69
2023/10/21 11:02:24;;;;;;;6.43;2.78;;;26.10;58.50;;;;;;5072156;28;20032;-69
2023/10/21 11:04:50;;;;;;;2.85;2.20;;;26.00;58.30;;;;;;5084978;28;20020;-67
2023/10/21 11:07:19;;;;;;;3.55;2.35;;;26.10;58.70;;;;;;5074329;28;20031;-69
2023/10/21 11:09:45;;;;;;;4.05;2.90;;;26.20;59.80;;;;;;5086232;28;20095;-69
2023/10/21 11:12:14;;;;;;;5.65;2.70;;;26.30;59.50;;;;;;5078259;28;20040;-69
2023/10/21 11:14:41;;;;;;;5.35;2.72;;;26.30;58.60;;;;;;5081390;28;20487;-69
2023/10/21 11:17:07;;;;;;;8.95;2.50;;;26.40;58.80;;;;;;5092364;28;20525;-70
2023/10/21 11:19:33;;;;;;;3.67;1.98;;;26.50;58.50;;;;;;5093114;28;20032;-69
2023/10/21 11:21:58;;;;;;;4.43;2.38;;;26.60;58.40;;;;;;5092517;28;20035;-69
2023/10/21 11:24:26;;;;;;;3.50;2.20;;;26.70;58.70;;;;;;5091940;28;20103;-73
2023/10/21 11:26:52;;;;;;;3.63;2.70;;;26.80;59.50;;;;;;5090427;28;20376;-67
2023/10/21 11:29:18;;;;;;;4.18;2.30;;;26.90;58.10;;;;;;5076071;28;20528;-68
2023/10/21 11:31:45;;;;;;;3.60;2.42;;;26.90;57.40;;;;;;5080402;28;20042;-72
2023/10/21 11:34:15;;;;;;;3.65;2.95;;;26.90;57.00;;;;;;5091647;28;20107;-68
2023/10/21 11:36:45;;;;;;;4.95;2.90;;;26.90;57.70;;;;;;5072718;28;20056;-68
2023/10/21 11:39:14;;;;;;;5.68;2.75;;;26.90;57.70;;;;;;5072748;28;20048;-68
2023/10/21 11:41:47;;;;;;;5.18;2.55;;;26.90;57.30;;;;;;5082212;28;20043;-68
2023/10/21 11:44:17;;;;;;;5.70;2.58;;;27.00;57.00;;;;;;5092763;28;20020;-67
2023/10/21 11:46:43;;;;;;;7.43;2.55;;;27.00;57.70;;;;;;5091710;28;20024;-68
2023/10/21 11:49:13;;;;;;;8.30;3.15;;;26.90;57.40;;;;;;5091060;28;20427;-69
2023/10/21 11:51:41;;;;;;;6.07;2.80;;;26.80;58.20;;;;;;5082853;28;20044;-68
2023/10/21 11:54:23;;;;;;;5.82;3.30;;;26.80;58.80;;;;;;5075028;28;20029;-68
2023/10/21 12:18:45;;;;;;;6.30;3.58;;;26.20;61.70;;;;;;5092306;28;20427;-69
2023/10/21 12:34:34;;;;;;;5.60;3.33;;;26.00;61.60;;;;;;5090382;28;20024;-71
2023/10/21 12:42:26;;;;;;;8.05;2.95;;;25.60;62.20;;;;;;5091747;28;20252;-72
2023/10/21 12:44:55;;;;;;;8.10;3.35;;;25.50;62.60;;;;;;5083672;28;20037;-71
2023/10/21 12:47:22;;;;;;;7.53;3.63;;;25.40;63.10;;;;;;5079301;28;20298;-69
2023/10/21 12:49:50;;;;;;;10.80;3.60;;;25.30;63.70;;;;;;5091844;28;20028;-68
2023/10/21 12:52:16;;;;;;;10.65;3.70;;;25.20;64.10;;;;;;5091684;28;20036;-69
2023/10/21 12:54:43;;;;;;;8.60;3.60;;;25.10;64.80;;;;;;5089745;28;20122;-67
2023/10/21 12:57:10;;;;;;;6.82;3.72;;;25.00;65.30;;;;;;5071251;28;20055;-70
2023/10/21 12:59:36;;;;;;;14.15;4.40;;;24.90;66.00;;;;;;5069112;28;20630;-71
2023/10/21 13:02:07;;;;;;;7.93;3.80;;;24.90;66.00;;;;;;5070472;28;20029;-67
2023/10/21 13:04:37;;;;;;;13.68;4.00;;;24.80;66.10;;;;;;5072227;28;20110;-70
2023/10/21 13:07:06;;;;;;;5.55;3.53;;;24.60;66.50;;;;;;5070953;28;20036;-71
2023/10/21 13:09:33;;;;;;;8.38;3.50;;;24.60;66.80;;;;;;5070415;28;20036;-69
2023/10/21 13:12:00;;;;;;;9.15;3.60;;;24.50;66.80;;;;;;5074465;28;20029;-68
2023/10/21 13:14:29;;;;;;;5.88;3.30;;;24.40;66.80;;;;;;5074224;28;20400;-68
2023/10/21 13:16:55;;;;;;;5.00;3.20;;;24.40;66.50;;;;;;5070176;28;20048;-68
2023/10/21 13:19:22;;;;;;;8.35;2.97;;;24.30;66.90;;;;;;5072278;28;20089;-68
2023/10/21 13:21:48;;;;;;;8.75;3.22;;;24.30;67.10;;;;;;5071127;28;20472;-67
2023/10/21 13:24:14;;;;;;;6.38;3.78;;;24.20;67.80;;;;;;5072552;28;20081;-70